Detall de PIREP

Printer-friendly versionPDF version

[2014/04/19 08:07:00]
Flight IATA:CT1004
Pilot Number:012
Company ICAO:CAT
Aircraft Type:B463/A
PAX:41
Aircraft Registration:PAX
Departing Airport: LEBL
Destination Airport: EGLC
Alternate Airport:EGSS
Online: VATSIM
Route:OKABI UN861 FISTO UY156 PERIG UT210 DIBAG UN460 FOUCO UT183 TIRAV UN863 DIKRO UZ273 ANGLO UT220 NEVIL/N0431F220 M189 WAFFU
Flight Level:F280
No Slew and time accel
No pause
Crash detect
Detect pilot in Cockpit between each 30 and 45 minutes
08:07 Zero fuel Weight: 63541 Lbs, Fuel Weight: 11404 Lbs
08:07 VATSIM:LEBL 190800Z 09009KT 9999 FEW009 SCT012 BKN022 16/12 Q1006 NOSIG
08:07 VATSIM:EGLC 190750Z 05012KT CAVOK 09/02 Q1019
08:07 EASTER CHARTER
08:20 Parking Brakes off
08:28 Take-off
08:28 Take off Weight: 74303 Lbs
08:28 Wind: 089º @ 009 Knots Heading: 067º
08:28 POS N41º 17´ 13´´ E002º 05´ 20´´
08:28 Gear Up: 153 Knots
08:39 TOC
08:39 Fuel Weight: 9134 Lb
08:43 Wind:307º@016 Knots Heading: 290º Ground Speed: 396 Knots Altitude 27782 ft
08:58 Wind:315º@010 Knots Heading: 352º Ground Speed: 400 Knots Altitude 27900 ft
09:13 Wind:339º@017 Knots Heading: 343º Ground Speed: 392 Knots Altitude 27929 ft
09:28 Wind:013º@012 Knots Heading: 297º Ground Speed: 406 Knots Altitude 27952 ft
09:43 Wind:167º@017 Knots Heading: 359º Ground Speed: 426 Knots Altitude 27998 ft
09:58 Wind:090º@009 Knots Heading: 027º Ground Speed: 405 Knots Altitude 28070 ft
10:12 TOD
10:12 Fuel Weight: 876 Lb
10:13 Wind:019º@019 Knots Heading: 024º Ground Speed: 343 Knots Altitude 25925 ft
10:27 Flaps:1 at 158 Knots
10:27 Gear Down: 129 Knots
10:28 Wind:053º@009 Knots Heading: 024º Ground Speed: 114 Knots Altitude 1617 ft
10:28 Flaps:2 at 112 Knots
10:28 Flaps:3 at 101 Knots
10:28 Flaps:4 at 104 Knots
10:30 TouchDown:Rate -318 ft/min Speed: 102 Knots
10:30 VATSIM:EGLC 191020Z 09012KT 9999 SCT032 11/02 Q1019
10:30 Land
10:30 Wind:057º@009 Knots
10:30 Heading: 091º
10:30 Flight Duration: 02:02
10:30 Landing Weight: 63886 Lbs
10:30 POS N51º 30´ 18´´ E000º 03´ 42´´
10:32 Parking brakes on
10:32 Block to Block Duration: 02:12
10:32 Final Fuel: 251 Lbls
10:32 Spent Fuel: 11153 Lbls
10:32 Flight Length: 747 NM
10:32 TOD Land Length: 68 NM

Exportar CSV

Powered by Drupal - Modified by Danger4k